createdAt,value
2022-08-30T00:01:42.440Z,73.89
2022-08-30T00:03:46.462Z,73.65
2022-08-30T00:05:48.040Z,73.85
2022-08-30T00:07:49.359Z,73.68
2022-08-30T00:09:50.756Z,73.98
2022-08-30T00:11:52.218Z,74.00
2022-08-30T00:13:53.565Z,73.82
2022-08-30T00:15:54.983Z,74.03
2022-08-30T00:17:56.325Z,74.17
2022-08-30T00:19:57.644Z,74.16
2022-08-30T00:21:59.047Z,74.10
2022-08-30T00:24:00.635Z,73.99
2022-08-30T00:26:02.623Z,74.08
2022-08-30T00:28:04.112Z,74.40
2022-08-30T00:30:05.427Z,73.99
2022-08-30T00:32:06.813Z,74.08
2022-08-30T00:34:08.147Z,73.84
2022-08-30T00:36:09.499Z,73.95
2022-08-30T00:38:10.829Z,73.90
2022-08-30T00:40:12.306Z,74.20
2022-08-30T00:42:13.668Z,74.09
2022-08-30T00:44:15.158Z,74.11
2022-08-30T00:46:16.755Z,74.37
2022-08-30T00:48:18.832Z,74.37
2022-08-30T00:50:20.187Z,74.20
2022-08-30T00:52:21.504Z,74.34
2022-08-30T00:54:23.563Z,74.39
2022-08-30T00:56:27.710Z,74.09
2022-08-30T00:58:29.068Z,74.23
2022-08-30T01:00:30.378Z,74.19
2022-08-30T01:02:33.445Z,74.33
2022-08-30T01:04:34.922Z,74.11
2022-08-30T01:06:36.327Z,74.27
2022-08-30T01:08:38.689Z,74.10
2022-08-30T01:10:40.029Z,74.45
2022-08-30T01:12:41.352Z,74.67
2022-08-30T01:14:42.664Z,74.22
2022-08-30T01:16:44.042Z,74.47
2022-08-30T01:18:45.376Z,74.29
2022-08-30T01:20:47.268Z,74.59
2022-08-30T01:22:48.616Z,74.57
2022-08-30T01:24:49.950Z,74.60
2022-08-30T01:26:51.271Z,74.68
2022-08-30T01:28:52.669Z,74.34
2022-08-30T01:30:54.157Z,74.41
2022-08-30T01:32:55.602Z,74.56
2022-08-30T01:34:56.927Z,74.40
2022-08-30T01:36:58.283Z,74.73
2022-08-30T01:38:59.640Z,74.75
2022-08-30T01:41:01.060Z,74.67
2022-08-30T01:43:02.409Z,74.61
2022-08-30T01:45:04.191Z,74.76
2022-08-30T01:47:05.505Z,74.92
2022-08-30T01:49:06.845Z,74.85
2022-08-30T01:51:08.164Z,74.87
2022-08-30T01:53:09.479Z,74.69
2022-08-30T01:55:14.864Z,74.78
2022-08-30T01:57:16.230Z,74.85
2022-08-30T01:59:17.903Z,74.66
2022-08-30T02:01:19.856Z,74.97
2022-08-30T02:03:21.335Z,74.87
2022-08-30T02:05:23.167Z,74.96
2022-08-30T02:07:24.523Z,74.79
2022-08-30T02:09:25.836Z,74.91
2022-08-30T02:11:27.197Z,74.94
2022-08-30T02:13:28.515Z,74.98
2022-08-30T02:15:29.855Z,75.04
2022-08-30T02:17:34.302Z,75.24
2022-08-30T02:19:35.623Z,75.03
2022-08-30T02:21:36.967Z,75.06
2022-08-30T02:23:38.355Z,75.39
2022-08-30T02:25:40.999Z,75.38
2022-08-30T02:27:42.363Z,75.38
2022-08-30T02:29:44.176Z,75.13
2022-08-30T02:31:45.526Z,74.94
2022-08-30T02:33:46.844Z,75.12
2022-08-30T02:35:48.199Z,75.35
2022-08-30T02:37:49.577Z,75.29
2022-08-30T02:39:50.922Z,74.96
2022-08-30T02:41:52.367Z,75.26
2022-08-30T02:43:58.519Z,75.15
2022-08-30T02:46:01.169Z,75.12
2022-08-30T02:48:02.551Z,75.36
2022-08-30T02:50:03.918Z,75.10
2022-08-30T02:52:05.307Z,75.19
2022-08-30T02:54:06.622Z,75.29
2022-08-30T02:56:07.971Z,75.50
2022-08-30T02:58:10.558Z,75.39
2022-08-30T03:00:12.598Z,75.07
2022-08-30T03:02:13.915Z,75.33
2022-08-30T03:04:15.233Z,75.39
2022-08-30T03:06:16.539Z,75.53
2022-08-30T03:08:18.003Z,75.33
2022-08-30T03:10:19.324Z,75.38
2022-08-30T03:12:20.663Z,75.36
2022-08-30T03:14:22.095Z,75.36
2022-08-30T03:16:23.569Z,75.29
2022-08-30T03:18:25.064Z,75.39
2022-08-30T03:20:26.407Z,75.37
2022-08-30T03:22:27.760Z,75.15
2022-08-30T03:24:29.095Z,75.58
2022-08-30T03:26:31.316Z,75.35
2022-08-30T03:28:32.635Z,75.12
2022-08-30T03:30:34.020Z,74.99
2022-08-30T03:32:35.345Z,75.03
2022-08-30T03:34:36.668Z,75.47
2022-08-30T03:36:38.317Z,75.30
2022-08-30T03:38:39.635Z,74.99
2022-08-30T03:40:41.071Z,75.45
2022-08-30T03:42:43.320Z,75.39
2022-08-30T03:44:45.311Z,75.32
2022-08-30T03:46:46.672Z,75.43
2022-08-30T03:48:47.999Z,75.33
2022-08-30T03:50:49.397Z,75.11
2022-08-30T03:52:50.731Z,75.44
2022-08-30T03:54:52.079Z,75.35
2022-08-30T03:56:53.398Z,75.49
2022-08-30T03:58:54.704Z,75.31
2022-08-30T04:00:56.107Z,75.69
2022-08-30T04:02:57.506Z,75.73
2022-08-30T04:04:58.836Z,75.47
2022-08-30T04:07:00.191Z,75.77
2022-08-30T04:09:01.635Z,75.55
2022-08-30T04:11:02.988Z,75.79
2022-08-30T04:13:06.573Z,75.81
2022-08-30T04:15:09.486Z,75.56
2022-08-30T04:17:10.794Z,75.56
2022-08-30T04:19:12.207Z,75.46
2022-08-30T04:21:14.262Z,76.10
2022-08-30T04:23:15.788Z,75.92
2022-08-30T04:25:17.743Z,75.54
2022-08-30T04:27:20.464Z,75.80
2022-08-30T04:29:21.816Z,76.14
2022-08-30T04:31:23.190Z,75.63
2022-08-30T04:33:24.719Z,75.43
2022-08-30T04:35:26.106Z,75.74
2022-08-30T04:37:27.433Z,75.54
2022-08-30T04:39:28.792Z,75.49
2022-08-30T04:41:30.112Z,75.66
2022-08-30T04:43:31.435Z,75.46
2022-08-30T04:45:32.882Z,75.43
2022-08-30T04:47:34.293Z,75.46
2022-08-30T04:49:35.667Z,75.41
2022-08-30T04:53:38.290Z,75.92
2022-08-30T04:55:39.651Z,75.84
2022-08-30T04:57:40.963Z,75.58
2022-08-30T04:59:42.365Z,75.63
2022-08-30T05:01:45.274Z,75.61
2022-08-30T05:03:47.197Z,75.53
2022-08-30T05:05:48.567Z,75.64
2022-08-30T05:07:49.952Z,75.45
2022-08-30T05:09:51.288Z,75.82
2022-08-30T05:13:53.949Z,75.88
2022-08-30T05:15:55.362Z,75.53
2022-08-30T05:17:56.728Z,75.69
2022-08-30T05:19:58.091Z,75.32
2022-08-30T05:21:59.434Z,75.75
2022-08-30T05:24:00.738Z,75.73
2022-08-30T05:26:02.811Z,76.11
2022-08-30T05:28:04.167Z,75.83
2022-08-30T05:30:06.308Z,75.92
2022-08-30T05:32:07.699Z,76.20
2022-08-30T05:34:09.031Z,76.34
2022-08-30T05:36:10.339Z,75.68
2022-08-30T05:38:11.707Z,76.16
2022-08-30T05:40:13.292Z,76.54
2022-08-30T05:42:16.868Z,76.29
2022-08-30T05:44:18.281Z,76.10
2022-08-30T05:46:21.052Z,75.92
2022-08-30T05:48:22.458Z,76.25
2022-08-30T05:50:24.243Z,76.28
2022-08-30T05:52:25.571Z,76.17
2022-08-30T05:54:26.896Z,76.29
2022-08-30T05:56:28.282Z,76.08
2022-08-30T05:58:29.652Z,75.88
2022-08-30T06:00:31.042Z,76.18
2022-08-30T06:02:32.369Z,75.71
2022-08-30T06:04:33.788Z,75.87
2022-08-30T06:06:35.498Z,75.91
2022-08-30T06:08:36.843Z,75.87
2022-08-30T06:10:38.212Z,75.82
2022-08-30T06:12:39.583Z,76.25
2022-08-30T06:14:40.911Z,76.26
2022-08-30T06:16:45.698Z,75.88
2022-08-30T06:18:47.263Z,75.94
2022-08-30T06:20:50.277Z,75.76
2022-08-30T06:22:52.292Z,76.12
2022-08-30T06:24:57.438Z,76.44
2022-08-30T06:26:59.249Z,76.04
2022-08-30T06:29:00.635Z,76.44
2022-08-30T06:31:01.981Z,76.46
2022-08-30T06:33:03.327Z,76.24
2022-08-30T06:35:05.043Z,76.25
2022-08-30T06:37:06.355Z,76.53
2022-08-30T06:39:07.715Z,75.87
2022-08-30T06:41:09.111Z,75.87
2022-08-30T06:43:10.444Z,75.69
2022-08-30T06:45:11.847Z,75.77
2022-08-30T06:47:13.173Z,75.59
2022-08-30T06:49:14.694Z,75.79
2022-08-30T06:51:16.130Z,75.49
2022-08-30T06:53:17.626Z,75.38
2022-08-30T06:55:19.007Z,75.60
2022-08-30T06:57:20.319Z,75.06
2022-08-30T06:59:21.648Z,75.39
2022-08-30T07:01:23.213Z,75.15
2022-08-30T07:03:27.272Z,75.24
2022-08-30T07:05:28.615Z,75.11
2022-08-30T07:07:29.948Z,74.88
2022-08-30T07:11:37.623Z,74.83
2022-08-30T07:13:39.052Z,75.10
2022-08-30T07:15:40.423Z,75.02
2022-08-30T07:18:00.584Z,74.92
2022-08-30T07:20:01.907Z,75.08
2022-08-30T07:22:03.220Z,74.69
2022-08-30T07:24:04.602Z,75.02
2022-08-30T07:26:10.063Z,74.69
2022-08-30T07:28:11.870Z,75.02
2022-08-30T07:30:13.393Z,72.22
2022-08-30T07:32:14.735Z,68.44
2022-08-30T07:34:16.183Z,67.30
2022-08-30T07:36:17.794Z,68.53
2022-08-30T07:38:19.111Z,67.99
2022-08-30T07:40:20.496Z,68.13
2022-08-30T07:42:21.858Z,67.91
2022-08-30T07:44:25.143Z,68.01
2022-08-30T07:46:27.068Z,68.42
2022-08-30T07:48:28.452Z,68.17
2022-08-30T07:50:29.795Z,67.51
2022-08-30T07:52:31.219Z,67.74
2022-08-30T07:54:32.613Z,68.22
2022-08-30T07:56:34.239Z,67.71
2022-08-30T07:58:37.588Z,68.35
2022-08-30T08:00:39.022Z,68.82
2022-08-30T08:02:41.896Z,68.60
2022-08-30T08:04:43.958Z,69.29
2022-08-30T08:06:45.400Z,69.15
2022-08-30T08:08:46.756Z,69.53
2022-08-30T08:10:48.092Z,69.45
2022-08-30T08:12:49.707Z,69.12
2022-08-30T08:14:53.472Z,69.11
2022-08-30T08:16:54.811Z,68.01
2022-08-30T08:18:56.138Z,68.21
2022-08-30T08:20:57.463Z,68.20
2022-08-30T08:22:58.834Z,68.97
2022-08-30T08:25:00.158Z,69.00
2022-08-30T08:27:01.462Z,68.94
2022-08-30T08:29:02.997Z,68.85
2022-08-30T08:31:04.412Z,68.89
2022-08-30T08:33:06.211Z,69.07
2022-08-30T08:35:07.566Z,69.10
2022-08-30T08:37:08.909Z,69.23
2022-08-30T08:39:10.271Z,69.08
2022-08-30T08:41:11.675Z,68.18
2022-08-30T08:43:13.048Z,68.26
2022-08-30T08:45:14.392Z,67.46
2022-08-30T08:47:15.936Z,67.85
2022-08-30T08:49:17.269Z,68.61
2022-08-30T08:51:37.103Z,68.58
2022-08-30T08:53:46.873Z,68.39
2022-08-30T08:55:48.473Z,68.67
2022-08-30T08:57:49.998Z,68.52
2022-08-30T08:59:54.462Z,67.55
2022-08-30T09:01:58.165Z,67.59
2022-08-30T09:03:59.650Z,67.86
2022-08-30T09:06:00.986Z,67.33
2022-08-30T09:08:04.567Z,67.93
2022-08-30T09:10:09.060Z,68.72
2022-08-30T09:12:10.386Z,68.32
2022-08-30T09:14:11.719Z,67.79
2022-08-30T09:16:22.409Z,67.88
2022-08-30T09:18:23.922Z,68.14
2022-08-30T09:20:25.230Z,67.94
2022-08-30T09:22:26.856Z,68.25
2022-08-30T09:24:28.177Z,68.18
2022-08-30T09:26:29.702Z,69.07
2022-08-30T09:28:31.019Z,69.37
2022-08-30T09:30:32.392Z,69.35
2022-08-30T09:32:33.808Z,69.70
2022-08-30T09:34:35.106Z,70.02
2022-08-30T09:36:36.432Z,69.67
2022-08-30T09:38:37.813Z,69.47
2022-08-30T09:40:39.236Z,69.47
2022-08-30T09:42:40.858Z,70.55
2022-08-30T09:44:42.218Z,68.59
2022-08-30T09:46:43.591Z,68.38
2022-08-30T09:51:04.183Z,67.74
2022-08-30T09:53:09.902Z,67.08
2022-08-30T09:55:11.284Z,67.17
2022-08-30T09:57:13.223Z,67.72
2022-08-30T09:59:14.648Z,68.25
2022-08-30T10:01:16.129Z,69.13
2022-08-30T10:05:36.622Z,69.82
2022-08-30T10:07:37.958Z,69.84
2022-08-30T10:09:40.926Z,69.61
2022-08-30T10:11:43.767Z,69.55
2022-08-30T10:13:45.184Z,69.70
2022-08-30T10:15:46.523Z,69.65
2022-08-30T10:17:48.729Z,69.87
2022-08-30T10:19:50.053Z,70.13
2022-08-30T10:21:51.409Z,69.54
2022-08-30T10:23:53.511Z,69.03
2022-08-30T10:25:54.942Z,67.85
2022-08-30T10:27:56.434Z,67.89
2022-08-30T10:29:59.464Z,68.50
2022-08-30T10:32:01.784Z,68.16
2022-08-30T10:34:03.144Z,67.94
2022-08-30T10:36:04.507Z,68.36
2022-08-30T10:38:11.760Z,68.23
2022-08-30T10:40:31.702Z,68.43
2022-08-30T10:42:36.670Z,68.18
2022-08-30T10:44:41.334Z,69.28
2022-08-30T10:46:42.727Z,69.66
2022-08-30T10:48:47.503Z,70.61
2022-08-30T10:50:48.970Z,70.95
2022-08-30T10:52:50.487Z,71.24
2022-08-30T10:54:51.837Z,71.21
2022-08-30T10:56:53.159Z,71.01
2022-08-30T10:58:54.961Z,70.95
2022-08-30T11:00:56.347Z,70.95
2022-08-30T11:02:57.785Z,70.97
2022-08-30T11:05:00.736Z,70.93
2022-08-30T11:07:02.965Z,71.55
2022-08-30T11:09:05.447Z,71.86
2022-08-30T11:11:06.783Z,71.48
2022-08-30T11:13:14.379Z,71.46
2022-08-30T11:15:15.774Z,71.33
2022-08-30T11:17:17.117Z,71.16
2022-08-30T11:19:18.970Z,70.71
2022-08-30T11:21:22.046Z,70.61
2022-08-30T11:23:23.566Z,70.23
2022-08-30T11:25:25.809Z,70.55
2022-08-30T11:27:27.131Z,70.03
2022-08-30T11:29:30.037Z,70.50
2022-08-30T11:31:32.987Z,70.49
2022-08-30T11:33:34.298Z,70.56
2022-08-30T11:35:35.612Z,70.04
2022-08-30T11:37:37.440Z,70.12
2022-08-30T11:39:38.784Z,70.21
2022-08-30T11:41:42.605Z,70.48
2022-08-30T11:43:45.959Z,70.73
2022-08-30T11:45:47.483Z,70.71
2022-08-30T11:47:51.009Z,70.93
2022-08-30T11:49:52.440Z,70.65
2022-08-30T11:52:23.650Z,70.72
2022-08-30T11:54:15.394Z,70.96
2022-08-30T11:56:17.091Z,70.95
2022-08-30T11:58:18.966Z,70.95
2022-08-30T12:00:20.278Z,70.94
2022-08-30T12:02:21.713Z,70.95
2022-08-30T12:04:24.623Z,71.34
2022-08-30T12:06:25.942Z,71.14
2022-08-30T12:08:27.977Z,71.41
2022-08-30T12:10:29.763Z,70.93
2022-08-30T12:12:31.102Z,70.85
2022-08-30T12:14:32.518Z,70.71
2022-08-30T12:16:33.875Z,70.91
2022-08-30T12:18:35.831Z,70.90
2022-08-30T12:20:37.162Z,70.70
2022-08-30T12:22:38.842Z,71.06
2022-08-30T12:24:40.263Z,71.52
2022-08-30T12:26:41.571Z,71.39
2022-08-30T12:28:43.521Z,71.36
2022-08-30T12:30:46.530Z,71.52
2022-08-30T12:32:50.712Z,71.33
2022-08-30T12:34:52.331Z,71.53
2022-08-30T12:36:53.746Z,71.75
2022-08-30T12:38:56.451Z,71.66
2022-08-30T12:41:00.734Z,71.52
2022-08-30T12:43:04.241Z,71.42
2022-08-30T12:45:05.559Z,71.24
2022-08-30T12:47:06.870Z,71.29
2022-08-30T12:49:08.179Z,71.12
2022-08-30T12:51:10.952Z,71.35
2022-08-30T12:53:14.101Z,71.30
2022-08-30T12:55:17.576Z,71.31
2022-08-30T12:57:34.896Z,71.06
2022-08-30T12:59:36.722Z,70.79
2022-08-30T13:01:38.826Z,70.81
2022-08-30T13:03:41.496Z,70.97
2022-08-30T13:05:45.533Z,71.01
2022-08-30T13:07:49.111Z,71.28
2022-08-30T13:09:53.678Z,71.11
2022-08-30T13:11:55.041Z,71.36
2022-08-30T13:13:58.275Z,71.50
2022-08-30T13:16:01.474Z,71.57
2022-08-30T13:18:03.581Z,71.43
2022-08-30T13:20:05.774Z,71.47
2022-08-30T13:22:07.427Z,71.89
2022-08-30T13:24:09.023Z,71.50
2022-08-30T13:26:11.496Z,71.35
2022-08-30T13:28:12.911Z,71.31
2022-08-30T13:30:14.632Z,71.46
2022-08-30T13:32:16.202Z,71.51
2022-08-30T13:34:19.084Z,71.42
2022-08-30T13:36:20.498Z,71.48
2022-08-30T13:38:24.423Z,71.49
2022-08-30T13:40:25.827Z,71.33
2022-08-30T13:42:34.668Z,71.34
2022-08-30T13:44:37.768Z,71.40
2022-08-30T13:46:43.141Z,71.43
2022-08-30T13:48:44.658Z,71.29
2022-08-30T13:50:46.588Z,71.23
2022-08-30T13:52:47.927Z,70.98
2022-08-30T13:54:49.800Z,71.08
2022-08-30T13:56:51.548Z,71.19
2022-08-30T13:58:52.899Z,71.06
2022-08-30T14:00:54.263Z,71.35
2022-08-30T14:02:59.855Z,71.73
2022-08-30T14:05:03.213Z,71.57
2022-08-30T14:07:14.097Z,71.45
2022-08-30T14:09:21.055Z,71.66
2022-08-30T14:11:22.938Z,71.70
2022-08-30T14:13:24.560Z,71.71
2022-08-30T14:15:25.866Z,71.94
2022-08-30T14:17:30.390Z,71.56
2022-08-30T14:19:31.796Z,70.27
2022-08-30T14:21:33.200Z,71.63
2022-08-30T14:23:34.540Z,71.32
2022-08-30T14:25:36.026Z,71.50
2022-08-30T14:27:37.891Z,71.47
2022-08-30T14:29:39.352Z,71.37
2022-08-30T14:31:41.029Z,71.57
2022-08-30T14:33:42.367Z,71.50
2022-08-30T14:35:43.699Z,71.36
2022-08-30T14:37:45.319Z,71.38
2022-08-30T14:39:46.663Z,71.76
2022-08-30T14:41:48.087Z,71.59
2022-08-30T14:43:49.395Z,71.31
2022-08-30T14:45:50.716Z,71.34
2022-08-30T14:51:54.843Z,71.55
2022-08-30T14:53:56.331Z,71.83
2022-08-30T14:55:57.690Z,71.85
2022-08-30T14:57:58.998Z,71.30
2022-08-30T15:00:00.746Z,71.91
2022-08-30T15:02:02.081Z,71.76
2022-08-30T15:04:03.650Z,72.11
2022-08-30T15:06:08.563Z,71.85
2022-08-30T15:08:10.484Z,71.55
2022-08-30T15:10:14.731Z,71.88
2022-08-30T15:12:16.050Z,71.84
2022-08-30T15:14:17.393Z,72.12
2022-08-30T15:16:18.743Z,71.74
2022-08-30T15:18:20.150Z,71.88
2022-08-30T15:20:21.495Z,71.89
2022-08-30T15:22:22.868Z,71.88
2022-08-30T15:24:25.021Z,72.12
2022-08-30T15:26:31.363Z,72.07
2022-08-30T15:28:32.724Z,72.07
2022-08-30T15:30:34.156Z,71.97
2022-08-30T15:32:35.587Z,72.05
2022-08-30T15:34:37.658Z,71.86
2022-08-30T15:36:38.976Z,72.26
2022-08-30T15:38:42.243Z,71.97
2022-08-30T15:40:44.643Z,72.00
2022-08-30T15:42:46.843Z,71.65
2022-08-30T15:44:48.163Z,71.62
2022-08-30T15:46:49.592Z,71.72
2022-08-30T15:48:52.021Z,71.91
2022-08-30T15:50:53.368Z,71.76
2022-08-30T15:52:54.692Z,71.41
2022-08-30T15:54:56.307Z,71.86
2022-08-30T15:57:01.452Z,72.00
2022-08-30T15:59:03.040Z,71.76
2022-08-30T16:01:05.633Z,72.00
2022-08-30T16:03:07.084Z,71.69
2022-08-30T16:05:08.473Z,71.74
2022-08-30T16:07:09.802Z,72.05
2022-08-30T16:09:11.512Z,71.91
2022-08-30T16:11:12.909Z,71.82
2022-08-30T16:13:14.283Z,71.97
2022-08-30T16:15:15.678Z,71.83
2022-08-30T16:17:17.365Z,71.85
2022-08-30T16:19:19.639Z,71.73
2022-08-30T16:21:21.007Z,72.07
2022-08-30T16:23:22.338Z,71.72
2022-08-30T16:25:23.735Z,72.21
2022-08-30T16:27:25.100Z,72.09
2022-08-30T16:29:26.407Z,72.13
2022-08-30T16:31:27.821Z,72.08
2022-08-30T16:33:29.167Z,72.24
2022-08-30T16:35:30.479Z,72.10
2022-08-30T16:37:32.230Z,72.28
2022-08-30T16:39:33.558Z,71.85
2022-08-30T16:41:34.884Z,72.14
2022-08-30T16:43:36.295Z,72.02
2022-08-30T16:45:37.603Z,72.29
2022-08-30T16:47:39.283Z,72.08
2022-08-30T16:49:40.606Z,72.28
2022-08-30T16:51:42.158Z,72.28
2022-08-30T16:53:43.527Z,72.46
2022-08-30T16:55:45.034Z,72.47
2022-08-30T16:57:46.611Z,72.26
2022-08-30T16:59:49.535Z,72.50
2022-08-30T17:01:53.847Z,72.31
2022-08-30T17:03:55.863Z,72.46
2022-08-30T17:05:57.570Z,72.21
2022-08-30T17:07:58.879Z,72.11
2022-08-30T17:10:00.291Z,72.47
2022-08-30T17:12:01.611Z,72.49
2022-08-30T17:14:05.244Z,72.16
2022-08-30T17:16:06.614Z,72.29
2022-08-30T17:18:08.018Z,72.55
2022-08-30T17:20:09.547Z,72.24
2022-08-30T17:22:10.909Z,72.42
2022-08-30T17:24:12.479Z,72.10
2022-08-30T17:26:13.832Z,72.16
2022-08-30T17:28:15.171Z,71.88
2022-08-30T17:30:16.555Z,72.29
2022-08-30T17:32:17.873Z,71.90
2022-08-30T17:34:21.867Z,72.14
2022-08-30T17:36:23.556Z,72.44
2022-08-30T17:38:25.572Z,72.34
2022-08-30T17:40:26.903Z,72.44
2022-08-30T17:42:29.717Z,72.40
2022-08-30T17:44:31.278Z,72.00
2022-08-30T17:46:33.704Z,71.91
2022-08-30T17:48:35.383Z,71.93
2022-08-30T17:50:36.743Z,72.36
2022-08-30T17:52:38.078Z,71.98
2022-08-30T17:54:41.014Z,71.98
2022-08-30T17:56:42.364Z,72.19
2022-08-30T17:58:43.709Z,72.33
2022-08-30T18:00:45.041Z,71.90
2022-08-30T18:02:47.029Z,72.25
2022-08-30T18:04:49.259Z,72.25
2022-08-30T18:06:50.643Z,72.35
2022-08-30T18:08:53.183Z,72.19
2022-08-30T18:10:54.499Z,72.16
2022-08-30T18:12:55.823Z,72.08
2022-08-30T18:14:57.143Z,72.17
2022-08-30T18:16:58.498Z,72.04
2022-08-30T18:19:00.107Z,72.09
2022-08-30T18:21:02.115Z,72.30
2022-08-30T18:23:03.619Z,71.82
2022-08-30T18:25:05.092Z,71.94
2022-08-30T18:27:06.421Z,72.41
2022-08-30T18:29:07.747Z,72.23
2022-08-30T18:31:09.935Z,72.09
2022-08-30T18:33:11.249Z,72.25
2022-08-30T18:35:12.586Z,72.30
2022-08-30T18:37:16.579Z,72.26
2022-08-30T18:39:19.042Z,72.26
2022-08-30T18:41:21.903Z,71.91
2022-08-30T18:43:24.727Z,71.91
2022-08-30T18:45:32.244Z,72.24
2022-08-30T18:47:33.731Z,71.99
2022-08-30T18:49:36.420Z,72.29
2022-08-30T18:51:38.039Z,71.96
2022-08-30T18:53:40.451Z,72.38
2022-08-30T18:55:42.403Z,72.39
2022-08-30T18:57:44.666Z,71.82
2022-08-30T18:59:46.046Z,72.03
2022-08-30T19:01:48.791Z,71.98
2022-08-30T19:03:51.110Z,72.28
2022-08-30T19:05:53.913Z,72.06
2022-08-30T19:07:55.385Z,72.27
2022-08-30T19:09:58.920Z,72.01
2022-08-30T19:12:00.893Z,72.32
2022-08-30T19:14:04.631Z,71.79
2022-08-30T19:16:08.381Z,72.26
2022-08-30T19:18:17.524Z,72.27
2022-08-30T19:20:34.748Z,72.01
2022-08-30T19:23:06.174Z,71.90
2022-08-30T19:24:57.361Z,72.25
2022-08-30T19:26:58.671Z,72.35
2022-08-30T19:28:59.982Z,72.11
2022-08-30T19:33:26.103Z,72.35
2022-08-30T19:35:30.295Z,72.25
2022-08-30T19:37:31.808Z,72.36
2022-08-30T19:39:35.664Z,72.03
2022-08-30T19:41:37.555Z,72.09
2022-08-30T19:43:38.910Z,72.25
2022-08-30T19:45:40.233Z,72.42
2022-08-30T19:47:41.647Z,72.21
2022-08-30T19:49:43.068Z,72.41
2022-08-30T19:51:46.569Z,72.47
2022-08-30T19:53:48.498Z,72.05
2022-08-30T19:55:49.829Z,72.11
2022-08-30T19:57:51.190Z,71.98
2022-08-30T19:59:52.614Z,72.48
2022-08-30T20:01:53.947Z,72.52
2022-08-30T20:03:56.772Z,72.52
2022-08-30T20:05:58.122Z,72.48
2022-08-30T20:08:00.535Z,72.34
2022-08-30T20:10:05.303Z,72.50
2022-08-30T20:12:07.174Z,72.23
2022-08-30T20:14:08.488Z,72.67
2022-08-30T20:16:09.835Z,72.61
2022-08-30T20:18:13.575Z,72.63
2022-08-30T20:20:16.147Z,72.46
2022-08-30T20:22:21.891Z,72.60
2022-08-30T20:24:24.005Z,72.08
2022-08-30T20:26:34.909Z,72.65
2022-08-30T20:28:37.190Z,72.60
2022-08-30T20:30:38.648Z,72.15
2022-08-30T20:32:42.499Z,72.22
2022-08-30T20:34:44.270Z,72.41
2022-08-30T20:36:45.630Z,72.40
2022-08-30T20:38:47.602Z,72.44
2022-08-30T20:40:50.247Z,72.08
2022-08-30T20:42:51.975Z,71.96
2022-08-30T20:44:53.283Z,72.34
2022-08-30T20:46:54.590Z,72.11
2022-08-30T20:48:55.991Z,71.54
2022-08-30T20:50:57.348Z,71.98
2022-08-30T20:52:58.664Z,72.09
2022-08-30T20:55:00.361Z,71.69
2022-08-30T20:57:01.997Z,72.09
2022-08-30T20:59:03.605Z,72.11
2022-08-30T21:01:05.197Z,71.75
2022-08-30T21:03:07.770Z,72.14
2022-08-30T21:05:19.102Z,71.87
2022-08-30T21:07:20.452Z,71.94
2022-08-30T21:09:21.854Z,72.08
2022-08-30T21:11:23.328Z,72.01
2022-08-30T21:13:24.699Z,71.96
2022-08-30T21:15:37.345Z,72.09
2022-08-30T21:17:40.187Z,72.19
2022-08-30T21:19:44.149Z,71.65
2022-08-30T21:21:45.566Z,71.82
2022-08-30T21:23:46.874Z,71.48
2022-08-30T21:25:48.818Z,71.37
2022-08-30T21:27:50.247Z,70.15
2022-08-30T21:29:51.641Z,69.94
2022-08-30T21:31:52.957Z,69.88
2022-08-30T21:33:54.300Z,70.06
2022-08-30T21:36:14.208Z,69.74
2022-08-30T21:38:15.550Z,69.78
2022-08-30T21:40:17.471Z,69.87
2022-08-30T21:42:18.905Z,69.14
2022-08-30T21:44:20.280Z,68.39
2022-08-30T21:46:21.663Z,67.70
2022-08-30T21:48:23.314Z,67.70
2022-08-30T21:50:24.621Z,68.35
2022-08-30T21:52:25.956Z,68.64
2022-08-30T21:54:31.365Z,68.49
2022-08-30T21:56:33.003Z,68.98
2022-08-30T21:58:34.899Z,68.92
2022-08-30T22:00:36.221Z,69.01
2022-08-30T22:02:37.593Z,68.19
2022-08-30T22:04:38.956Z,68.60
2022-08-30T22:06:40.288Z,68.45
2022-08-30T22:08:42.026Z,68.36
2022-08-30T22:10:43.406Z,68.28
2022-08-30T22:12:44.733Z,67.97
2022-08-30T22:14:46.067Z,68.37
2022-08-30T22:16:47.904Z,67.82
2022-08-30T22:18:49.282Z,68.45
2022-08-30T22:20:50.643Z,67.83
2022-08-30T22:22:51.978Z,68.08
2022-08-30T22:24:53.315Z,68.85
2022-08-30T22:26:54.635Z,68.67
2022-08-30T22:28:55.999Z,68.15
2022-08-30T22:30:57.315Z,68.37
2022-08-30T22:32:58.671Z,68.57
2022-08-30T22:35:00.051Z,68.77
2022-08-30T22:37:01.402Z,68.77
2022-08-30T22:39:03.139Z,68.58
2022-08-30T22:41:04.917Z,67.57
2022-08-30T22:43:06.231Z,68.34
2022-08-30T22:45:07.598Z,68.44
2022-08-30T22:47:11.559Z,68.90
2022-08-30T22:49:12.910Z,68.43
2022-08-30T22:51:14.266Z,69.17
2022-08-30T22:53:15.584Z,70.11
2022-08-30T22:55:17.048Z,69.60
2022-08-30T22:57:19.891Z,69.54
2022-08-30T22:59:21.235Z,68.80
2022-08-30T23:01:31.721Z,69.27
2022-08-30T23:03:33.077Z,68.90
2022-08-30T23:05:34.399Z,68.81
2022-08-30T23:07:35.739Z,68.42
2022-08-30T23:09:37.062Z,69.09
2022-08-30T23:11:38.378Z,68.35
2022-08-30T23:13:39.679Z,68.75
2022-08-30T23:15:41.012Z,68.08
2022-08-30T23:17:42.395Z,69.23
2022-08-30T23:19:43.810Z,68.84
2022-08-30T23:21:45.175Z,68.26
2022-08-30T23:24:05.154Z,68.51
2022-08-30T23:26:25.151Z,69.25
2022-08-30T23:28:45.051Z,68.41
2022-08-30T23:31:05.004Z,69.13
2022-08-30T23:33:25.245Z,68.95
2022-08-30T23:35:45.144Z,68.80
2022-08-30T23:38:05.132Z,69.43
2022-08-30T23:40:25.204Z,69.12
2022-08-30T23:42:45.572Z,68.20
2022-08-30T23:45:05.450Z,68.54
2022-08-30T23:47:25.391Z,67.85
2022-08-30T23:49:45.254Z,69.46
2022-08-30T23:52:05.242Z,68.20
2022-08-30T23:54:25.232Z,68.75
2022-08-30T23:56:44.978Z,68.94
2022-08-30T23:59:04.880Z,69.07
